< < Back
Terminal Aerodrome Forecast


Current Version              Previous Versions:   1  2  3  4  5  6  7  8  9  

Terminal Aerodrome Forecast

211
FTUS42 KFFC 220500
TAFFTY
TAF
KFTY 220532Z 2206/2306 00000KT P6SM SCT008 BKN090
     FM220800 00000KT 5SM BR OVC008
     FM221000 00000KT 4SM BR OVC005
     FM221400 08003KT 6SM BR SCT007 BKN012
     FM221600 08003KT P6SM VCSH SCT020 BKN035
      TEMPO 2219/2223 5SM -TSRA BR BKN020CB
     FM230000 00000KT P6SM BKN035=



Latest METAR

532
SAUS70 KWBC 222100 RRJ
MTRFTY
METAR KFTY 222053Z 12006KT 10SM BKN034 BKN110 28/21 A3008 RMK AO2 SLP177
T02830206 56014


USA.gov is the U.S. government's official web portal to all federal, state and local government web resources and services.